Time;durP1;ratioP1;P1;durP2;ratioP2;P2;SDS_P1;SDS_P2;PMS_P1;PMS_P2;Temp;Humidity;BMP_temperature;BMP_pressure;BME280_temperature;BME280_humidity;BME280_pressure;Samples;Min_cycle;Max_cycle;Signal;HPM_P1;HPM_P2
2023/08/24 00:01:14;;;;;;;21.27;4.20;;;16.10;99.90;;;;;;2019712;69;25235;-87
2023/08/24 00:04:02;;;;;;;13.50;3.83;;;16.10;99.90;;;;;;2017095;70;25237;-88
2023/08/24 00:06:51;;;;;;;19.50;4.40;;;16.10;99.90;;;;;;2017211;70;25258;-88
2023/08/24 00:22:46;;;;;;;13.03;3.00;;;16.20;99.90;;;;;;1900802;74;27657;-86
2023/08/24 00:42:08;;;;;;;14.10;4.10;;;16.00;99.90;;;;;;2023432;69;26251;-87
2023/08/24 00:58:06;;;;;;;20.43;3.50;;;16.00;99.90;;;;;;1915604;73;28255;-87
2023/08/24 01:03:36;;;;;;;14.83;3.10;;;16.10;99.90;;;;;;1940176;72;26771;-88
2023/08/24 01:06:25;;;;;;;18.17;3.30;;;16.10;99.90;;;;;;1906522;73;25249;-87
2023/08/24 01:09:14;;;;;;;13.40;3.47;;;16.10;99.90;;;;;;1900527;73;25571;-87
2023/08/24 01:14:53;;;;;;;16.77;3.20;;;16.00;99.90;;;;;;1948147;72;27836;-87
2023/08/24 01:17:44;;;;;;;10.40;2.67;;;16.10;99.90;;;;;;1917032;73;25272;-87
2023/08/24 01:20:34;;;;;;;17.23;3.33;;;16.00;99.90;;;;;;1936646;73;25228;-87
2023/08/24 01:23:35;;;;;;;21.00;3.90;;;15.90;99.90;;;;;;1929928;73;25195;-87
2023/08/24 01:26:23;;;;;;;14.67;3.50;;;15.80;99.90;;;;;;1917427;73;25953;-87
2023/08/24 01:29:13;;;;;;;11.50;2.90;;;15.80;99.90;;;;;;1916305;73;25254;-89
2023/08/24 01:32:01;;;;;;;20.30;3.30;;;15.80;99.90;;;;;;1918901;73;25659;-87
2023/08/24 01:34:50;;;;;;;17.77;3.50;;;15.80;99.90;;;;;;1922054;73;25202;-87
2023/08/24 01:37:39;;;;;;;14.23;2.90;;;15.80;99.90;;;;;;1925028;73;25301;-87
2023/08/24 01:40:31;;;;;;;17.10;3.13;;;15.70;99.90;;;;;;1873722;75;25665;-87
2023/08/24 01:46:14;;;;;;;19.43;3.30;;;15.80;99.90;;;;;;1948891;72;26928;-87
2023/08/24 01:49:05;;;;;;;14.50;3.23;;;15.90;99.90;;;;;;1929727;73;25733;-87
2023/08/24 01:51:55;;;;;;;8.97;2.40;;;15.90;99.90;;;;;;1937895;72;25673;-87
2023/08/24 01:54:44;;;;;;;15.20;2.87;;;15.80;99.90;;;;;;1923608;72;25222;-87
2023/08/24 02:00:49;;;;;;;16.90;3.20;;;15.80;99.90;;;;;;2081740;68;26312;-88
2023/08/24 02:03:38;;;;;;;15.77;3.10;;;15.80;99.90;;;;;;2011697;69;25266;-87
2023/08/24 02:06:28;;;;;;;13.07;2.80;;;15.80;99.90;;;;;;1996162;70;25215;-87
2023/08/24 02:11:57;;;;;;;15.40;3.17;;;15.90;99.90;;;;;;1963068;71;27032;-87
2023/08/24 02:14:46;;;;;;;10.10;2.80;;;15.90;99.90;;;;;;1943376;72;25277;-87
2023/08/24 02:17:35;;;;;;;12.60;3.40;;;15.90;99.90;;;;;;1939408;73;25809;-87
2023/08/24 02:20:24;;;;;;;13.47;3.30;;;15.90;99.90;;;;;;1938346;73;25735;-87
2023/08/24 02:23:12;;;;;;;16.10;2.83;;;15.90;99.90;;;;;;1949260;73;25298;-87
2023/08/24 02:26:03;;;;;;;10.30;2.87;;;15.90;99.90;;;;;;1953317;73;26626;-87
2023/08/24 02:28:52;;;;;;;19.63;3.13;;;15.90;99.90;;;;;;1943807;72;25198;-87
2023/08/24 02:31:41;;;;;;;14.67;2.83;;;15.90;99.90;;;;;;1914453;73;25213;-87
2023/08/24 02:34:29;;;;;;;14.63;3.20;;;15.90;99.90;;;;;;1906999;74;25212;-87
2023/08/24 02:37:18;;;;;;;13.70;3.00;;;15.80;99.90;;;;;;1912006;73;25162;-87
2023/08/24 02:40:10;;;;;;;16.03;2.90;;;15.80;99.90;;;;;;1906286;73;25239;-87
2023/08/24 02:42:58;;;;;;;15.77;2.53;;;15.80;99.90;;;;;;1878432;75;25200;-87
2023/08/24 02:45:47;;;;;;;16.07;3.23;;;15.80;99.90;;;;;;1881062;75;25293;-87
2023/08/24 02:52:20;;;;;;;14.73;2.60;;;15.70;99.90;;;;;;1952937;72;26817;-87
2023/08/24 02:55:11;;;;;;;12.80;2.70;;;15.70;99.90;;;;;;1944186;72;25313;-87
2023/08/24 02:57:59;;;;;;;12.63;2.47;;;15.70;99.90;;;;;;1973444;72;25218;-88
2023/08/24 03:00:51;;;;;;;18.33;3.00;;;15.80;99.90;;;;;;1939324;73;25238;-87
2023/08/24 03:03:39;;;;;;;17.50;3.30;;;15.80;99.90;;;;;;1940074;73;25271;-87
2023/08/24 03:06:28;;;;;;;14.57;2.93;;;15.70;99.90;;;;;;1953470;72;26545;-87
2023/08/24 03:12:34;;;;;;;11.47;3.00;;;15.70;99.90;;;;;;1969435;71;26341;-87
2023/08/24 03:18:07;;;;;;;11.33;2.70;;;15.60;99.90;;;;;;1951042;72;27039;-87
2023/08/24 03:20:56;;;;;;;6.00;2.40;;;15.70;99.90;;;;;;1936301;72;25160;-87
2023/08/24 03:23:45;;;;;;;15.47;2.80;;;15.70;99.90;;;;;;1933969;73;25246;-87
2023/08/24 03:26:33;;;;;;;11.33;2.67;;;15.70;99.90;;;;;;1936074;72;25197;-87
2023/08/24 03:29:22;;;;;;;9.97;2.60;;;15.70;99.90;;;;;;1934431;73;25273;-87
2023/08/24 03:32:11;;;;;;;10.23;3.03;;;15.60;99.90;;;;;;1939433;72;25262;-87
2023/08/24 03:35:02;;;;;;;10.97;2.67;;;15.70;99.90;;;;;;1923634;73;25288;-87
2023/08/24 03:37:52;;;;;;;15.93;2.67;;;15.80;99.90;;;;;;1951987;72;25289;-87
2023/08/24 03:40:41;;;;;;;16.90;2.50;;;15.80;99.90;;;;;;1931051;72;25212;-87
2023/08/24 03:43:29;;;;;;;10.37;2.63;;;15.80;99.90;;;;;;1905661;74;25657;-87
2023/08/24 03:46:18;;;;;;;15.00;3.10;;;15.80;99.90;;;;;;1869377;75;25192;-88
2023/08/24 03:49:07;;;;;;;12.70;3.00;;;15.70;99.90;;;;;;1844125;77;25663;-87
2023/08/24 03:51:55;;;;;;;15.53;2.90;;;15.80;99.90;;;;;;1867040;75;25819;-88
2023/08/24 03:54:45;;;;;;;15.73;3.50;;;15.80;99.90;;;;;;1832565;76;25338;-87
2023/08/24 04:00:16;;;;;;;14.30;2.90;;;15.60;99.90;;;;;;1938024;72;27116;-88
2023/08/24 04:03:06;;;;;;;15.67;2.90;;;15.70;99.90;;;;;;1907785;74;25319;-88
2023/08/24 04:05:54;;;;;;;15.83;3.00;;;15.70;99.90;;;;;;1865884;75;25208;-88
2023/08/24 04:08:43;;;;;;;10.17;2.50;;;15.70;99.90;;;;;;1840996;77;25223;-88
2023/08/24 04:11:31;;;;;;;9.03;2.50;;;15.60;99.90;;;;;;1873058;75;25210;-88
2023/08/24 04:14:20;;;;;;;9.33;2.43;;;15.50;99.90;;;;;;1870541;75;25980;-88
2023/08/24 04:17:08;;;;;;;9.77;2.80;;;15.50;99.90;;;;;;1852393;76;25197;-88
2023/08/24 04:19:56;;;;;;;8.50;2.63;;;15.50;99.90;;;;;;1847981;76;25277;-88
2023/08/24 04:22:45;;;;;;;14.60;3.27;;;15.50;99.90;;;;;;1872151;75;25249;-88
2023/08/24 04:25:34;;;;;;;12.77;2.53;;;15.60;99.90;;;;;;1843175;76;25339;-88
2023/08/24 04:28:23;;;;;;;12.03;2.63;;;15.70;99.90;;;;;;1879149;75;25386;-88
2023/08/24 04:31:11;;;;;;;11.70;2.73;;;15.60;99.90;;;;;;1846494;76;25222;-88
2023/08/24 05:02:16;;;;;;;9.67;2.70;;;15.50;99.90;;;;;;1950488;71;26327;-87
2023/08/24 05:08:50;;;;;;;8.80;2.47;;;15.70;99.90;;;;;;1969803;71;25184;-87
2023/08/24 05:11:38;;;;;;;13.17;2.80;;;15.70;99.90;;;;;;2006373;71;25699;-87
2023/08/24 05:14:27;;;;;;;11.80;2.23;;;15.60;99.90;;;;;;1961895;72;25198;-87
2023/08/24 05:24:58;;;;;;;11.67;2.50;;;15.50;99.90;;;;;;2005629;71;25247;-88
2023/08/24 05:27:47;;;;;;;13.40;2.87;;;15.50;99.90;;;;;;1943673;72;25220;-87
2023/08/24 05:30:35;;;;;;;8.57;2.37;;;15.60;99.90;;;;;;1960348;72;25707;-87
2023/08/24 05:33:26;;;;;;;13.40;2.73;;;15.60;99.90;;;;;;1970845;72;25146;-87
2023/08/24 05:36:15;;;;;;;10.30;2.87;;;15.60;99.90;;;;;;1968510;71;25642;-87
2023/08/24 05:39:03;;;;;;;9.17;2.87;;;15.60;99.90;;;;;;2008569;70;25866;-87
2023/08/24 05:41:54;;;;;;;9.77;2.30;;;15.80;99.90;;;;;;2000533;70;25169;-87
2023/08/24 05:44:42;;;;;;;11.53;2.43;;;15.70;99.90;;;;;;1990459;71;25277;-87
2023/08/24 05:47:31;;;;;;;9.73;2.30;;;15.70;99.90;;;;;;1969161;71;25229;-87
2023/08/24 05:50:20;;;;;;;13.40;2.70;;;15.70;99.90;;;;;;2009362;70;25554;-87
2023/08/24 05:53:08;;;;;;;8.20;2.73;;;15.70;99.90;;;;;;1982583;71;25241;-88
2023/08/24 06:13:12;;;;;;;9.97;2.43;;;15.90;99.90;;;;;;1957877;71;27071;-88
2023/08/24 06:16:01;;;;;;;10.70;2.53;;;15.90;99.90;;;;;;1986208;70;25274;-87
2023/08/24 06:18:50;;;;;;;8.57;3.00;;;15.90;99.90;;;;;;1993031;70;25213;-87
2023/08/24 06:35:35;;;;;;;14.07;2.47;;;16.00;99.90;;;;;;1938440;72;26699;-87
2023/08/24 06:41:08;;;;;;;5.17;2.10;;;16.20;99.90;;;;;;1895903;74;27045;-87
2023/08/24 06:46:46;;;;;;;8.80;2.20;;;16.20;99.90;;;;;;1942704;72;26979;-87
2023/08/24 06:52:17;;;;;;;6.93;2.33;;;16.30;99.90;;;;;;1973111;71;27806;-87
2023/08/24 06:55:07;;;;;;;12.40;2.33;;;16.40;99.90;;;;;;1899633;75;25756;-87
2023/08/24 06:57:55;;;;;;;11.27;2.40;;;16.40;99.90;;;;;;1876002;76;25746;-88
2023/08/24 07:00:44;;;;;;;7.67;2.07;;;16.40;99.90;;;;;;1902280;75;26053;-87
2023/08/24 07:06:13;;;;;;;4.53;2.00;;;16.30;99.90;;;;;;1918039;72;26988;-87
2023/08/24 07:09:07;;;;;;;7.60;1.97;;;16.30;99.90;;;;;;1911738;73;25680;-87
2023/08/24 07:11:55;;;;;;;7.70;2.07;;;16.50;99.90;;;;;;1906990;75;25702;-88
2023/08/24 07:14:44;;;;;;;7.80;2.00;;;16.60;99.90;;;;;;1913507;73;25307;-88
2023/08/24 07:17:33;;;;;;;5.87;2.23;;;16.70;99.90;;;;;;1909675;73;25330;-87
2023/08/24 07:20:21;;;;;;;5.93;1.93;;;16.70;99.90;;;;;;1902994;73;25228;-87
2023/08/24 07:23:10;;;;;;;4.20;1.77;;;16.70;99.90;;;;;;1911406;73;25252;-87
2023/08/24 07:25:59;;;;;;;6.67;1.70;;;16.70;99.90;;;;;;1902594;74;25284;-87
2023/08/24 07:33:07;;;;;;;7.13;2.10;;;16.80;99.90;;;;;;1974595;71;26317;-87
2023/08/24 07:35:56;;;;;;;5.73;1.90;;;16.80;99.90;;;;;;2027334;70;25262;-87
2023/08/24 07:41:46;;;;;;;7.87;1.77;;;16.80;99.90;;;;;;1956582;72;27007;-87
2023/08/24 07:44:35;;;;;;;7.33;2.30;;;17.00;99.90;;;;;;1898945;73;25322;-87
2023/08/24 07:47:24;;;;;;;6.40;2.40;;;17.00;99.90;;;;;;1867611;76;25244;-87
2023/08/24 07:50:13;;;;;;;9.20;1.93;;;17.10;99.90;;;;;;1802444;77;25276;-87
2023/08/24 07:53:01;;;;;;;6.70;2.23;;;17.30;99.90;;;;;;1849475;76;25257;-87
2023/08/24 07:55:50;;;;;;;7.40;2.20;;;17.10;99.90;;;;;;1857992;76;26008;-87
2023/08/24 07:58:39;;;;;;;8.00;2.37;;;17.00;99.90;;;;;;1818133;77;25304;-87
2023/08/24 08:01:28;;;;;;;6.17;1.93;;;16.90;99.90;;;;;;1894168;74;25212;-88
2023/08/24 08:18:27;;;;;;;7.17;1.70;;;18.10;99.90;;;;;;1995137;71;27116;-88
2023/08/24 08:24:10;;;;;;;6.07;1.73;;;18.90;99.90;;;;;;1947539;72;26915;-88
2023/08/24 08:53:45;;;;;;;3.33;1.77;;;18.90;99.90;;;;;;1900585;74;27105;-88
2023/08/24 09:01:19;;;;;;;5.30;1.63;;;18.80;99.90;;;;;;1903114;74;26867;-88
2023/08/24 09:04:11;;;;;;;6.17;1.67;;;18.90;99.90;;;;;;1927406;73;25699;-88
2023/08/24 09:07:03;;;;;;;6.00;1.60;;;18.90;99.90;;;;;;1913353;73;25234;-88
2023/08/24 09:09:53;;;;;;;11.03;2.20;;;18.60;99.90;;;;;;1925781;74;25267;-88
2023/08/24 09:12:43;;;;;;;8.03;1.93;;;18.50;99.90;;;;;;1915625;74;25163;-88
2023/08/24 09:18:24;;;;;;;14.93;2.20;;;19.20;99.90;;;;;;1949045;72;26863;-88
2023/08/24 09:21:15;;;;;;;3.93;1.63;;;19.60;99.90;;;;;;1915931;73;25666;-88
2023/08/24 09:24:04;;;;;;;7.93;1.80;;;19.70;99.90;;;;;;1935818;72;25214;-88
2023/08/24 09:26:53;;;;;;;8.20;1.90;;;19.70;99.90;;;;;;1935389;72;25286;-88
2023/08/24 09:29:42;;;;;;;4.60;1.70;;;19.60;99.90;;;;;;1929362;73;25658;-88
2023/08/24 09:32:32;;;;;;;5.47;2.00;;;19.70;99.90;;;;;;1922962;73;25225;-88
2023/08/24 09:49:01;;;;;;;3.87;1.90;;;20.20;99.90;;;;;;1908805;74;27073;-87
2023/08/24 10:05:01;;;;;;;4.33;1.97;;;20.00;99.90;;;;;;1898720;74;27171;-88
2023/08/24 10:10:41;;;;;;;10.13;1.97;;;20.40;99.90;;;;;;1958678;70;27134;-87
2023/08/24 10:16:32;;;;;;;3.63;1.73;;;20.20;99.90;;;;;;1946390;72;27467;-88
2023/08/24 10:25:20;;;;;;;4.40;1.90;;;20.20;99.90;;;;;;1907594;74;26378;-88
2023/08/24 10:28:17;;;;;;;5.60;2.10;;;20.10;99.90;;;;;;1966399;71;25262;-88
2023/08/24 10:31:07;;;;;;;4.73;1.80;;;20.30;99.90;;;;;;1954685;72;25234;-88
2023/08/24 10:33:57;;;;;;;8.73;1.80;;;20.30;99.90;;;;;;1979507;71;25289;-88
2023/08/24 10:53:56;;;;;;;3.97;1.50;;;20.80;99.90;;;;;;1968745;72;26699;-88
2023/08/24 11:10:00;;;;;;;5.27;1.93;;;20.50;99.90;;;;;;1890701;75;27119;-88
2023/08/24 11:18:26;;;;;;;5.67;1.90;;;20.20;99.90;;;;;;1994757;71;28223;-88
2023/08/24 11:45:33;;;;;;;4.40;1.60;;;20.20;99.90;;;;;;1932442;72;27055;-88
2023/08/24 12:03:38;;;;;;;5.47;1.77;;;20.00;99.90;;;;;;1905881;74;26928;-88
2023/08/24 12:09:46;;;;;;;5.10;1.73;;;20.30;99.90;;;;;;1984220;71;27104;-87
2023/08/24 12:12:37;;;;;;;4.77;1.70;;;20.10;99.90;;;;;;2010541;70;25271;-88
2023/08/24 12:18:20;;;;;;;6.20;1.97;;;19.60;99.90;;;;;;1943660;72;27407;-88
2023/08/24 12:21:09;;;;;;;9.63;2.07;;;19.70;99.90;;;;;;1933561;73;25655;-88
2023/08/24 12:23:59;;;;;;;5.40;2.30;;;19.80;99.90;;;;;;1926785;73;25142;-88
2023/08/24 12:26:50;;;;;;;7.50;1.80;;;19.70;99.90;;;;;;1918138;72;25306;-88
2023/08/24 12:29:46;;;;;;;3.00;1.60;;;19.80;99.90;;;;;;1922112;73;25277;-88
2023/08/24 12:32:45;;;;;;;6.93;2.10;;;19.90;99.90;;;;;;1942505;73;25221;-87
2023/08/24 12:49:00;;;;;;;4.43;1.47;;;20.00;99.90;;;;;;1933677;72;27142;-89
2023/08/24 13:21:33;;;;;;;4.70;1.80;;;20.00;99.90;;;;;;1978562;71;27033;-88
2023/08/24 13:24:21;;;;;;;6.90;1.90;;;19.90;99.90;;;;;;1908917;75;25202;-88
2023/08/24 13:27:11;;;;;;;4.97;1.57;;;19.90;99.90;;;;;;1894151;74;25272;-88
2023/08/24 13:30:04;;;;;;;3.00;1.50;;;19.90;99.90;;;;;;1912612;74;25244;-88
2023/08/24 13:32:55;;;;;;;2.97;1.50;;;20.10;99.90;;;;;;1923132;74;25236;-88
2023/08/24 13:38:23;;;;;;;4.00;1.70;;;20.20;99.90;;;;;;1833659;76;27132;-88
2023/08/24 13:54:50;;;;;;;2.87;1.67;;;20.20;99.90;;;;;;2049198;69;26843;-88
2023/08/24 14:00:26;;;;;;;2.77;1.50;;;20.00;99.90;;;;;;1956779;72;26994;-88
2023/08/24 14:06:09;;;;;;;6.83;1.60;;;20.10;99.90;;;;;;1949392;72;27037;-88
2023/08/24 14:09:00;;;;;;;3.63;1.47;;;20.20;99.90;;;;;;1931623;73;25216;-88
2023/08/24 14:11:50;;;;;;;6.80;1.87;;;20.30;99.90;;;;;;1905780;73;25812;-87
2023/08/24 14:14:38;;;;;;;6.97;1.70;;;20.20;99.90;;;;;;1924348;73;25274;-88
2023/08/24 14:17:27;;;;;;;4.93;1.40;;;20.30;99.90;;;;;;1933868;72;25215;-88
2023/08/24 14:20:16;;;;;;;3.83;1.53;;;20.30;99.90;;;;;;1928956;73;25246;-88
2023/08/24 14:23:06;;;;;;;5.07;1.70;;;20.30;99.90;;;;;;1864131;75;25242;-88
2023/08/24 14:25:54;;;;;;;3.77;1.70;;;20.40;99.90;;;;;;1864228;75;25684;-88
2023/08/24 14:28:54;;;;;;;5.80;1.63;;;20.30;99.90;;;;;;1940028;74;25221;-88
2023/08/24 14:31:43;;;;;;;3.87;1.60;;;20.20;99.90;;;;;;1918999;72;25301;-88
2023/08/24 14:34:32;;;;;;;5.00;1.73;;;20.20;99.90;;;;;;1916020;72;25213;-88
2023/08/24 14:37:20;;;;;;;4.20;1.67;;;20.20;99.90;;;;;;1928073;72;25236;-88
2023/08/24 14:40:11;;;;;;;4.77;1.60;;;20.20;99.90;;;;;;1922966;72;25367;-88
2023/08/24 14:43:01;;;;;;;4.60;1.53;;;20.20;99.90;;;;;;1886466;73;25813;-88
2023/08/24 14:45:51;;;;;;;1.67;1.30;;;20.20;99.90;;;;;;1898785;74;25255;-88
2023/08/24 14:48:40;;;;;;;3.13;1.40;;;20.10;99.90;;;;;;1905239;74;25750;-88
2023/08/24 14:51:28;;;;;;;6.90;1.50;;;20.10;99.90;;;;;;1893980;74;25217;-88
2023/08/24 14:54:18;;;;;;;3.90;1.40;;;20.00;99.90;;;;;;1852102;75;25217;-88
2023/08/24 15:12:02;;;;;;;8.13;1.53;;;20.20;99.90;;;;;;1955492;72;27163;-88
2023/08/24 15:28:08;;;;;;;5.30;1.60;;;20.30;99.90;;;;;;1918235;74;27076;-86
2023/08/24 15:33:37;;;;;;;2.10;1.43;;;20.40;99.90;;;;;;1956642;72;27049;-87
2023/08/24 15:39:04;;;;;;;4.77;1.50;;;20.60;99.90;;;;;;1968359;72;27490;-87
2023/08/24 15:41:53;;;;;;;5.87;1.40;;;20.50;99.90;;;;;;1918105;73;25289;-87
2023/08/24 15:47:21;;;;;;;2.53;1.57;;;20.60;99.90;;;;;;1953555;72;27457;-87
2023/08/24 15:50:12;;;;;;;2.77;1.50;;;20.60;99.90;;;;;;1913485;74;25201;-87
2023/08/24 15:53:02;;;;;;;2.23;1.30;;;20.60;99.90;;;;;;1895804;75;25283;-87
2023/08/24 15:55:52;;;;;;;5.37;1.60;;;20.60;99.90;;;;;;1914920;75;25216;-87
2023/08/24 15:58:41;;;;;;;4.47;1.50;;;20.60;99.90;;;;;;1888835;75;25700;-87
2023/08/24 16:01:30;;;;;;;3.33;1.40;;;20.50;99.90;;;;;;1905404;73;25291;-87
2023/08/24 16:04:18;;;;;;;2.67;1.33;;;20.40;99.90;;;;;;1904930;75;25240;-87
2023/08/24 16:07:07;;;;;;;3.73;1.40;;;20.30;99.90;;;;;;1884041;73;25317;-87
2023/08/24 16:09:56;;;;;;;2.57;1.50;;;20.30;99.90;;;;;;1902166;75;25281;-87
2023/08/24 16:12:45;;;;;;;2.47;1.40;;;20.30;99.90;;;;;;1905936;73;25255;-87
2023/08/24 16:15:34;;;;;;;6.27;1.50;;;20.40;99.90;;;;;;1888177;75;25626;-87
2023/08/24 16:18:25;;;;;;;3.63;1.70;;;20.30;99.90;;;;;;1900042;75;25230;-87
2023/08/24 16:21:13;;;;;;;4.37;1.30;;;20.30;99.90;;;;;;1885931;75;25221;-87
2023/08/24 16:24:03;;;;;;;2.87;1.50;;;20.20;99.90;;;;;;1862767;75;25316;-87
2023/08/24 16:26:51;;;;;;;5.33;1.40;;;20.10;99.90;;;;;;1897558;75;25840;-87
2023/08/24 16:29:40;;;;;;;6.57;1.60;;;20.10;99.90;;;;;;1883705;73;25235;-87
2023/08/24 16:32:29;;;;;;;1.77;1.20;;;20.20;99.90;;;;;;1887380;75;25249;-87
2023/08/24 16:35:18;;;;;;;3.67;1.47;;;20.30;99.90;;;;;;1899470;75;25654;-86
2023/08/24 16:38:07;;;;;;;4.40;1.70;;;20.20;99.90;;;;;;1903444;75;25268;-86
2023/08/24 16:40:56;;;;;;;2.97;1.30;;;20.30;99.90;;;;;;1885870;73;25284;-87
2023/08/24 16:43:44;;;;;;;2.17;1.30;;;20.10;99.90;;;;;;1857191;75;25190;-87
2023/08/24 16:46:33;;;;;;;2.90;1.60;;;20.10;99.90;;;;;;1877969;75;25338;-86
2023/08/24 16:49:22;;;;;;;7.30;1.60;;;20.30;99.90;;;;;;1871032;75;25262;-86
2023/08/24 16:52:11;;;;;;;5.07;1.50;;;20.30;99.90;;;;;;1879276;75;25254;-86
2023/08/24 16:54:59;;;;;;;2.40;1.20;;;20.20;99.90;;;;;;1867179;75;25344;-86
2023/08/24 17:00:28;;;;;;;3.23;1.30;;;20.20;99.90;;;;;;1935164;72;27185;-87
2023/08/24 17:03:17;;;;;;;4.70;1.40;;;20.10;99.90;;;;;;1898098;73;25235;-87
2023/08/24 17:06:06;;;;;;;4.23;1.30;;;20.10;99.90;;;;;;1902613;75;25233;-86
2023/08/24 17:11:33;;;;;;;2.63;1.43;;;20.10;99.90;;;;;;1910510;72;27140;-87
2023/08/24 17:14:22;;;;;;;5.23;1.43;;;20.10;99.90;;;;;;1895978;74;25150;-86
2023/08/24 17:17:11;;;;;;;5.20;1.53;;;20.00;99.90;;;;;;1896110;75;25246;-86
2023/08/24 17:19:59;;;;;;;2.57;1.40;;;19.90;99.90;;;;;;1894594;74;25311;-87
2023/08/24 17:22:48;;;;;;;1.50;1.40;;;19.80;99.90;;;;;;1899303;73;25257;-87
2023/08/24 17:25:38;;;;;;;3.23;1.67;;;19.60;99.90;;;;;;1909980;74;25185;-86
2023/08/24 17:28:27;;;;;;;3.93;1.80;;;19.50;99.90;;;;;;1894604;75;25194;-87
2023/08/24 17:31:16;;;;;;;4.40;1.70;;;19.60;99.90;;;;;;1888733;73;25232;-87
2023/08/24 17:34:05;;;;;;;2.10;1.40;;;19.50;99.90;;;;;;1862197;76;25288;-87
2023/08/24 17:36:54;;;;;;;6.90;2.37;;;19.40;99.90;;;;;;1915076;74;25260;-86
2023/08/24 17:39:42;;;;;;;4.83;1.90;;;19.30;99.90;;;;;;1899167;74;25248;-87
2023/08/24 17:42:31;;;;;;;2.47;1.60;;;19.40;99.90;;;;;;1902557;75;25333;-86
2023/08/24 17:48:05;;;;;;;3.07;1.90;;;19.30;99.90;;;;;;1940375;72;27051;-87
2023/08/24 17:53:36;;;;;;;2.77;1.43;;;19.10;99.90;;;;;;1893662;74;27114;-87
2023/08/24 17:56:26;;;;;;;4.10;1.90;;;19.00;99.90;;;;;;1841397;76;25289;-87
2023/08/24 17:59:15;;;;;;;1.50;1.40;;;19.00;99.90;;;;;;1845209;76;25226;-87
2023/08/24 18:02:03;;;;;;;5.53;1.57;;;18.90;99.90;;;;;;1837538;76;25249;-87
2023/08/24 18:04:52;;;;;;;3.90;1.60;;;18.80;99.90;;;;;;1825358;76;25641;-87
2023/08/24 18:07:41;;;;;;;3.20;1.90;;;18.70;99.90;;;;;;1837926;76;25242;-87
2023/08/24 18:10:30;;;;;;;3.63;1.90;;;18.60;99.90;;;;;;1834109;76;25312;-87
2023/08/24 18:13:18;;;;;;;5.03;1.80;;;18.40;99.90;;;;;;1836292;76;25231;-88
2023/08/24 18:16:06;;;;;;;4.70;1.80;;;18.30;99.90;;;;;;1836119;76;25303;-87
2023/08/24 18:18:55;;;;;;;3.50;2.00;;;18.30;99.90;;;;;;1844790;76;25242;-86
2023/08/24 18:21:44;;;;;;;5.57;1.80;;;18.30;99.90;;;;;;1843586;76;25691;-87
2023/08/24 18:24:33;;;;;;;2.83;1.80;;;18.20;99.90;;;;;;1838174;76;25184;-87
2023/08/24 18:27:22;;;;;;;3.13;1.90;;;18.10;99.90;;;;;;1846477;76;25404;-87
2023/08/24 18:30:12;;;;;;;4.63;1.80;;;17.90;99.90;;;;;;1838294;76;25770;-87
2023/08/24 18:33:02;;;;;;;5.97;1.80;;;17.90;99.90;;;;;;1839674;76;25301;-87
2023/08/24 18:35:53;;;;;;;7.00;2.07;;;17.80;99.90;;;;;;1840383;76;25765;-87
2023/08/24 18:38:43;;;;;;;6.93;2.03;;;17.80;99.90;;;;;;1849895;76;25174;-87
2023/08/24 18:41:31;;;;;;;7.33;2.37;;;17.70;99.90;;;;;;1846051;76;25301;-87
2023/08/24 18:47:02;;;;;;;4.30;2.30;;;17.50;99.90;;;;;;1936201;72;27056;-87
2023/08/24 18:49:50;;;;;;;3.77;2.10;;;17.50;99.90;;;;;;1905966;73;25286;-87
2023/08/24 18:52:39;;;;;;;3.67;2.23;;;17.50;99.90;;;;;;1901640;73;25703;-87
2023/08/24 18:55:27;;;;;;;7.73;2.10;;;17.50;99.90;;;;;;1902764;73;25162;-87
2023/08/24 18:58:16;;;;;;;2.53;2.10;;;17.40;99.90;;;;;;1900665;73;25217;-87
2023/08/24 19:01:05;;;;;;;7.63;2.10;;;17.20;99.90;;;;;;1903838;73;25174;-87
2023/08/24 19:03:55;;;;;;;3.37;2.13;;;17.00;99.90;;;;;;1903878;73;25754;-87
2023/08/24 19:06:44;;;;;;;6.03;1.97;;;17.00;99.90;;;;;;1893892;75;25285;-87
2023/08/24 19:09:33;;;;;;;4.80;2.27;;;17.10;99.90;;;;;;1890193;73;25237;-87
2023/08/24 19:12:22;;;;;;;4.33;2.17;;;17.10;99.90;;;;;;1901384;73;25234;-87
2023/08/24 19:15:12;;;;;;;9.17;2.43;;;17.10;99.90;;;;;;1908915;73;25287;-87
2023/08/24 19:18:00;;;;;;;7.13;2.40;;;17.00;99.90;;;;;;1893735;73;25295;-87
2023/08/24 19:20:49;;;;;;;2.10;1.90;;;16.90;99.90;;;;;;1884444;73;25245;-86
2023/08/24 19:23:38;;;;;;;5.43;2.23;;;16.90;99.90;;;;;;1910966;73;25189;-87
2023/08/24 19:26:26;;;;;;;4.37;2.10;;;16.90;99.90;;;;;;1902313;75;25287;-87
2023/08/24 19:29:15;;;;;;;9.40;2.40;;;16.90;99.90;;;;;;1904292;73;25209;-87
2023/08/24 19:32:04;;;;;;;4.20;1.90;;;16.90;99.90;;;;;;1904495;75;25150;-87
2023/08/24 19:34:53;;;;;;;5.67;2.50;;;16.90;99.90;;;;;;1911858;75;25241;-87
2023/08/24 19:37:42;;;;;;;5.20;2.10;;;16.70;99.90;;;;;;1901220;75;25220;-87
2023/08/24 19:40:31;;;;;;;3.40;2.37;;;16.70;99.90;;;;;;1903340;75;25296;-87
2023/08/24 19:43:19;;;;;;;3.73;2.10;;;16.50;99.90;;;;;;1877919;75;25279;-86
2023/08/24 19:46:08;;;;;;;5.57;2.30;;;16.50;99.90;;;;;;1873118;74;25216;-87
2023/08/24 19:48:56;;;;;;;10.20;2.80;;;16.60;99.90;;;;;;1883201;74;25638;-87
2023/08/24 19:54:24;;;;;;;5.70;3.67;;;16.50;99.90;;;;;;1918020;72;27077;-87
2023/08/24 19:57:14;;;;;;;9.63;3.77;;;16.50;99.90;;;;;;1905795;74;25760;-87
2023/08/24 20:00:06;;;;;;;9.00;4.67;;;16.40;99.90;;;;;;1892505;74;25184;-88
2023/08/24 20:02:55;;;;;;;8.30;4.50;;;16.40;99.90;;;;;;1901102;74;25348;-88
2023/08/24 20:05:44;;;;;;;10.10;5.10;;;16.30;99.90;;;;;;1903399;75;25271;-87
2023/08/24 20:08:33;;;;;;;8.97;4.33;;;16.30;99.90;;;;;;1888740;74;25219;-88
2023/08/24 20:11:23;;;;;;;5.70;3.90;;;16.30;99.90;;;;;;1896463;75;25279;-88
2023/08/24 20:14:11;;;;;;;9.63;4.00;;;16.30;99.90;;;;;;1886414;74;25301;-87
2023/08/24 20:17:00;;;;;;;4.67;3.13;;;16.20;99.90;;;;;;1905768;75;25297;-87
2023/08/24 20:19:49;;;;;;;5.10;3.17;;;16.20;99.90;;;;;;1886758;74;25180;-87
2023/08/24 20:22:38;;;;;;;5.93;3.23;;;16.20;99.90;;;;;;1910793;74;25233;-87
2023/08/24 20:25:26;;;;;;;5.67;2.90;;;16.10;99.90;;;;;;1884772;74;25812;-87
2023/08/24 20:30:56;;;;;;;4.57;2.87;;;16.10;99.90;;;;;;1938345;72;27072;-87
2023/08/24 20:33:45;;;;;;;10.53;3.17;;;16.00;99.90;;;;;;1898974;74;25260;-87
2023/08/24 20:39:15;;;;;;;7.70;2.70;;;15.90;99.90;;;;;;1929645;72;27104;-86
2023/08/24 20:42:19;;;;;;;5.80;2.80;;;15.90;99.90;;;;;;1877336;74;25862;-88
2023/08/24 20:45:09;;;;;;;6.43;2.80;;;15.90;99.90;;;;;;1874969;74;25674;-86
2023/08/24 20:50:42;;;;;;;6.23;2.97;;;15.70;99.90;;;;;;1949751;71;27040;-86
2023/08/24 20:53:30;;;;;;;8.40;2.70;;;15.80;99.90;;;;;;1934728;73;25296;-86
2023/08/24 20:56:19;;;;;;;7.53;2.97;;;15.70;99.90;;;;;;1936277;72;25288;-86
2023/08/24 20:59:08;;;;;;;5.33;2.77;;;15.70;99.90;;;;;;1928062;73;25237;-86
2023/08/24 21:01:56;;;;;;;8.83;2.73;;;15.70;99.90;;;;;;1938440;74;25164;-86
2023/08/24 21:04:47;;;;;;;6.33;2.63;;;15.70;99.90;;;;;;1927807;73;25713;-86
2023/08/24 21:07:36;;;;;;;4.90;3.10;;;15.70;99.90;;;;;;1920776;73;25266;-86
2023/08/24 21:10:25;;;;;;;4.40;2.30;;;15.60;99.90;;;;;;1918573;73;25226;-86
2023/08/24 21:13:14;;;;;;;7.03;2.73;;;15.60;99.90;;;;;;1920529;74;25162;-86
2023/08/24 21:29:15;;;;;;;7.30;3.20;;;15.60;99.90;;;;;;1874114;75;27638;-86
2023/08/24 21:34:44;;;;;;;6.87;2.83;;;15.60;99.90;;;;;;1941342;72;27097;-86
2023/08/24 21:37:33;;;;;;;4.40;2.83;;;15.40;99.90;;;;;;1934405;73;25671;-86
2023/08/24 21:40:22;;;;;;;4.33;2.67;;;15.40;99.90;;;;;;1917313;73;25670;-86
2023/08/24 21:46:01;;;;;;;8.07;2.77;;;15.20;99.90;;;;;;1947074;72;26912;-86
2023/08/24 21:51:30;;;;;;;6.53;2.77;;;15.10;99.90;;;;;;1934592;72;27509;-87
2023/08/24 21:54:18;;;;;;;5.53;2.80;;;15.10;99.90;;;;;;1892325;75;25238;-86
2023/08/24 21:57:07;;;;;;;4.30;2.53;;;15.10;99.90;;;;;;1900964;75;25166;-86
2023/08/24 21:59:56;;;;;;;5.03;2.50;;;15.00;99.90;;;;;;1891874;75;25663;-86
2023/08/24 22:02:44;;;;;;;5.77;2.67;;;14.90;99.90;;;;;;1897926;75;25614;-86
2023/08/24 22:05:33;;;;;;;6.50;2.93;;;14.90;99.90;;;;;;1894557;75;25233;-86
2023/08/24 22:08:22;;;;;;;4.37;2.77;;;14.80;99.90;;;;;;1899025;73;25289;-86
2023/08/24 22:11:10;;;;;;;9.17;2.90;;;14.70;99.90;;;;;;1902070;75;25249;-86
2023/08/24 22:13:59;;;;;;;13.63;3.37;;;14.70;99.90;;;;;;1904064;75;25229;-86
2023/08/24 22:16:48;;;;;;;4.20;2.83;;;14.60;99.90;;;;;;1903127;75;25799;-86
2023/08/24 22:19:37;;;;;;;3.20;2.83;;;14.60;99.90;;;;;;1903781;73;25266;-86
2023/08/24 22:25:12;;;;;;;7.77;2.80;;;14.50;99.90;;;;;;2045599;69;27485;-86
2023/08/24 22:30:40;;;;;;;9.20;3.17;;;14.30;99.90;;;;;;1942444;72;26989;-86
2023/08/24 22:33:32;;;;;;;5.43;3.17;;;14.40;99.90;;;;;;1856747;76;25252;-86
2023/08/24 22:36:19;;;;;;;9.83;2.90;;;14.40;99.90;;;;;;1818206;78;25229;-86
2023/08/24 22:39:08;;;;;;;6.37;3.10;;;14.30;99.90;;;;;;1905875;74;25172;-86